Time;durP1;ratioP1;P1;durP2;ratioP2;P2;SDS_P1;SDS_P2;PMS_P1;PMS_P2;Temp;Humidity;BMP_temperature;BMP_pressure;BME280_temperature;BME280_humidity;BME280_pressure;Samples;Min_cycle;Max_cycle;Signal;HPM_P1;HPM_P2
2022/07/30 00:00:29;;;;;;;17.50;16.50;;;;;;;19.53;100.00;101878.75;1992471;71;30969;-83
2022/07/30 00:06:14;;;;;;;18.77;17.23;;;;;;;19.42;100.00;101884.94;1992506;71;31462;-82
2022/07/30 00:11:59;;;;;;;19.50;18.33;;;;;;;19.58;100.00;101883.42;2019206;71;31501;-80
2022/07/30 00:17:47;;;;;;;22.40;20.83;;;;;;;19.49;100.00;101885.34;2011603;71;31403;-83
2022/07/30 00:23:32;;;;;;;23.27;21.80;;;;;;;19.51;100.00;101888.09;2002735;71;30829;-83
2022/07/30 00:29:21;;;;;;;24.00;22.57;;;;;;;19.49;100.00;101883.36;2016826;71;31359;-82
2022/07/30 00:35:09;;;;;;;25.90;24.50;;;;;;;19.42;100.00;101875.08;2018995;71;31028;-83
2022/07/30 00:40:54;;;;;;;26.93;25.33;;;;;;;19.43;100.00;101869.13;2010156;71;30922;-82
2022/07/30 00:46:43;;;;;;;28.63;26.83;;;;;;;19.44;100.00;101861.52;2005606;71;30880;-85
2022/07/30 00:52:31;;;;;;;32.27;30.50;;;;;;;19.32;100.00;101842.91;2011941;71;30861;-83
2022/07/30 00:58:19;;;;;;;37.33;35.00;;;;;;;19.28;100.00;101861.04;2009704;71;30855;-82
2022/07/30 01:04:06;;;;;;;39.43;37.07;;;;;;;19.16;100.00;101864.17;2000733;71;31448;-84
2022/07/30 01:09:50;;;;;;;42.27;39.53;;;;;;;19.08;100.00;101863.76;2000816;71;30895;-85
2022/07/30 01:15:40;;;;;;;44.77;41.87;;;;;;;19.10;100.00;101851.61;2016964;71;30948;-82
2022/07/30 01:21:31;;;;;;;50.00;46.90;;;;;;;18.99;100.00;101853.59;2002760;71;30834;-82
2022/07/30 01:24:04;;;;;;;51.83;48.57;;;;;;;18.99;100.00;101857.81;1972443;72;24159;-83
2022/07/30 01:29:55;;;;;;;56.60;53.20;;;;;;;18.97;100.00;101851.08;1999520;71;30838;-84
2022/07/30 01:35:46;;;;;;;61.73;58.03;;;;;;;18.88;100.00;101843.13;2015359;70;33343;-84
2022/07/30 01:41:35;;;;;;;61.23;57.50;;;;;;;18.92;100.00;101836.28;2017022;71;33338;-83
2022/07/30 01:47:25;;;;;;;64.93;60.93;;;;;;;18.86;100.00;101842.63;2008306;71;30873;-81
2022/07/30 01:53:16;;;;;;;67.57;63.63;;;;;;;18.81;100.00;101850.34;2015040;71;30964;-83
2022/07/30 01:59:07;;;;;;;69.00;65.03;;;;;;;18.71;100.00;101850.00;2017077;71;30941;-83
2022/07/30 02:04:56;;;;;;;73.87;69.57;;;;;;;18.52;100.00;101847.34;2014913;71;31006;-81
2022/07/30 02:10:47;;;;;;;74.30;69.90;;;;;;;18.63;100.00;101844.55;2006017;71;30901;-83
2022/07/30 02:16:37;;;;;;;77.33;72.93;;;;;;;18.50;100.00;101839.73;2013438;70;33394;-82
2022/07/30 02:22:26;;;;;;;78.67;74.10;;;;;;;18.52;100.00;101843.11;1995565;71;30882;-84
2022/07/30 02:28:15;;;;;;;81.13;76.43;;;;;;;18.36;100.00;101831.03;2005644;71;30938;-82
2022/07/30 02:34:05;;;;;;;76.17;71.67;;;;;;;18.13;100.00;101836.59;2006169;71;30906;-82
2022/07/30 02:39:55;;;;;;;80.00;75.20;;;;;;;18.10;100.00;101831.56;2011382;71;31059;-81
2022/07/30 02:45:44;;;;;;;83.97;79.10;;;;;;;18.01;100.00;101839.05;2008088;70;30877;-81
2022/07/30 02:51:36;;;;;;;81.00;76.10;;;;;;;18.02;100.00;101835.67;1997464;71;30833;-82
2022/07/30 02:57:28;;;;;;;81.53;76.83;;;;;;;17.96;100.00;101828.50;2013460;71;31382;-82
2022/07/30 03:03:20;;;;;;;81.73;76.53;;;;;;;17.70;100.00;101830.97;2004186;71;33372;-84
2022/07/30 03:09:08;;;;;;;77.17;72.47;;;;;;;17.54;100.00;101837.98;2001336;71;30829;-81
2022/07/30 03:14:53;;;;;;;79.47;74.47;;;;;;;17.74;100.00;101823.58;2000983;71;31431;-80
2022/07/30 03:20:46;;;;;;;84.27;79.10;;;;;;;17.66;100.00;101820.92;2002717;71;30906;-84
2022/07/30 03:26:36;;;;;;;79.73;74.77;;;;;;;17.52;100.00;101832.66;2016703;71;30895;-82
2022/07/30 03:32:25;;;;;;;80.63;75.70;;;;;;;17.44;100.00;101819.32;1995462;71;31376;-84
2022/07/30 03:38:15;;;;;;;79.77;74.97;;;;;;;17.49;100.00;101812.78;2006459;71;30912;-83
2022/07/30 03:44:03;;;;;;;80.57;75.77;;;;;;;17.38;100.00;101807.06;2006194;71;30879;-83
2022/07/30 03:49:52;;;;;;;77.90;72.90;;;;;;;17.28;100.00;101799.67;2000904;71;30899;-84
2022/07/30 03:55:40;;;;;;;81.07;75.67;;;;;;;17.45;100.00;101804.14;2005859;71;32937;-84
2022/07/30 04:01:28;;;;;;;79.17;74.47;;;;;;;17.47;100.00;101798.20;1963580;71;39711;-82
2022/07/30 04:07:14;;;;;;;80.00;75.00;;;;;;;17.40;100.00;101801.98;2016995;71;31406;-82
2022/07/30 04:13:01;;;;;;;78.13;73.33;;;;;;;17.44;100.00;101801.62;2015112;71;30980;-81
2022/07/30 04:18:53;;;;;;;79.40;74.50;;;;;;;17.36;100.00;101810.20;2016739;71;30945;-83
2022/07/30 04:24:46;;;;;;;79.43;74.50;;;;;;;17.16;100.00;101809.12;2009705;71;31437;-83
2022/07/30 04:30:38;;;;;;;77.57;72.60;;;;;;;17.30;100.00;101808.61;2008178;71;30835;-84
2022/07/30 04:36:26;;;;;;;75.17;70.73;;;;;;;17.02;100.00;101811.05;2019143;71;30965;-84
2022/07/30 04:42:14;;;;;;;77.90;73.30;;;;;;;16.99;100.00;101806.87;2016796;71;31460;-84
2022/07/30 04:48:02;;;;;;;79.00;74.30;;;;;;;17.24;100.00;101802.83;1999096;71;32764;-83
2022/07/30 04:53:56;;;;;;;80.57;75.47;;;;;;;17.10;100.00;101796.33;2013469;71;30969;-82
2022/07/30 04:59:44;;;;;;;78.63;73.83;;;;;;;17.17;100.00;101804.61;2010214;71;30835;-83
2022/07/30 05:05:31;;;;;;;78.77;73.97;;;;;;;17.06;100.00;101802.29;2001201;71;30825;-83
2022/07/30 05:11:17;;;;;;;71.60;67.10;;;;;;;16.93;100.00;101815.12;2006560;71;32975;-83
2022/07/30 05:17:14;;;;;;;74.77;69.77;;;;;;;16.98;100.00;101833.86;1995259;71;33285;-83
2022/07/30 05:22:59;;;;;;;73.60;68.83;;;;;;;17.18;100.00;101830.16;2015035;71;30987;-84
2022/07/30 05:28:48;;;;;;;71.67;66.97;;;;;;;17.24;100.00;101828.91;2012130;71;33255;-83
2022/07/30 05:34:35;;;;;;;75.10;70.23;;;;;;;17.30;100.00;101832.48;2004318;71;30920;-82
2022/07/30 05:40:26;;;;;;;72.83;67.87;;;;;;;17.15;100.00;101770.98;2009284;71;31060;-83
2022/07/30 05:46:13;;;;;;;73.20;68.83;;;;;;;17.80;100.00;101813.09;2012106;71;30892;-84
2022/07/30 05:51:58;;;;;;;72.87;68.37;;;;;;;17.47;100.00;101813.64;2000648;71;31025;-83
2022/07/30 05:57:46;;;;;;;70.63;66.27;;;;;;;17.61;100.00;101802.75;1999051;71;30957;-84
2022/07/30 06:03:37;;;;;;;69.10;64.87;;;;;;;17.62;100.00;101817.63;2004306;71;31431;-82
2022/07/30 06:09:26;;;;;;;68.60;64.13;;;;;;;17.60;100.00;101825.52;2003070;71;30982;-85
2022/07/30 06:15:16;;;;;;;70.90;66.70;;;;;;;17.84;100.00;101815.53;2003637;71;32869;-83
2022/07/30 06:21:01;;;;;;;67.43;63.27;;;;;;;17.92;100.00;101807.22;2015374;71;30931;-83
2022/07/30 06:26:46;;;;;;;68.00;63.87;;;;;;;18.02;100.00;101814.59;1994944;71;31376;-83
2022/07/30 06:32:34;;;;;;;67.20;63.17;;;;;;;18.28;100.00;101814.90;2001021;71;33365;-83
2022/07/30 06:38:21;;;;;;;66.60;62.73;;;;;;;18.32;100.00;101819.58;1996991;71;30837;-82
2022/07/30 06:44:06;;;;;;;67.13;63.47;;;;;;;18.34;100.00;101817.30;2000294;71;30975;-82
2022/07/30 06:49:51;;;;;;;65.17;61.40;;;;;;;18.50;100.00;101805.97;2014809;71;31116;-82
2022/07/30 06:55:37;;;;;;;61.07;57.60;;;;;;;18.71;100.00;101792.30;1995260;71;30811;-83
2022/07/30 07:01:26;;;;;;;59.37;56.07;;;;;;;18.88;100.00;101793.86;1990173;71;33309;-84
2022/07/30 07:07:13;;;;;;;61.20;57.70;;;;;;;18.92;100.00;101797.70;2017299;71;31366;-84
2022/07/30 07:12:59;;;;;;;57.77;54.57;;;;;;;19.14;100.00;101795.47;2014297;71;31374;-83
2022/07/30 07:18:45;;;;;;;56.20;53.10;;;;;;;19.38;100.00;101812.87;2010280;71;30811;-86
2022/07/30 07:24:29;;;;;;;51.07;48.27;;;;;;;19.64;100.00;101806.02;2015985;71;30975;-84
2022/07/30 07:30:15;;;;;;;46.67;43.97;;;;;;;19.99;100.00;101799.97;2017507;71;30942;-82
2022/07/30 07:36:00;;;;;;;39.20;37.03;;;;;;;20.36;100.00;101801.47;2015478;71;31440;-84
2022/07/30 07:41:46;;;;;;;34.83;32.73;;;;;;;20.59;100.00;101800.17;2009837;71;30935;-80
2022/07/30 07:47:31;;;;;;;34.57;32.47;;;;;;;20.82;100.00;101800.86;1997860;71;31035;-81
2022/07/30 07:53:20;;;;;;;30.50;28.87;;;;;;;21.28;100.00;101792.56;2009967;71;30881;-85
2022/07/30 07:59:05;;;;;;;29.67;27.87;;;;;;;21.09;100.00;101802.54;2004704;71;30859;-85
2022/07/30 08:04:50;;;;;;;29.33;27.63;;;;;;;21.19;100.00;101817.75;2011906;71;30822;-82
2022/07/30 08:10:35;;;;;;;23.30;22.10;;;;;;;21.50;100.00;101806.24;1997969;71;30839;-83
2022/07/30 08:16:21;;;;;;;20.60;19.43;;;;;;;21.75;100.00;101815.23;2010000;71;31493;-82
2022/07/30 08:22:06;;;;;;;15.55;14.90;;;;;;;22.09;100.00;101819.97;2008731;70;30904;-81
2022/07/30 08:27:50;;;;;;;13.10;12.50;;;;;;;22.40;100.00;101811.16;1999495;71;30832;-82
2022/07/30 08:33:38;;;;;;;12.33;11.73;;;;;;;22.46;100.00;101823.96;2007671;71;30867;-82
2022/07/30 08:39:23;;;;;;;11.40;10.90;;;;;;;22.57;100.00;101826.05;2006673;71;30947;-82
2022/07/30 08:45:13;;;;;;;10.88;10.40;;;;;;;22.63;100.00;101833.15;2010060;71;31450;-84
2022/07/30 08:51:01;;;;;;;10.80;10.40;;;;;;;22.65;100.00;101839.90;2002803;71;30976;-82
2022/07/30 08:56:49;;;;;;;10.50;10.00;;;;;;;22.84;100.00;101826.15;2006314;71;30865;-81
2022/07/30 09:02:35;;;;;;;10.10;9.43;;;;;;;23.09;100.00;101832.78;2017111;71;30851;-84
2022/07/30 09:08:22;;;;;;;10.05;9.50;;;;;;;23.19;100.00;101833.76;1992144;71;30818;-82
2022/07/30 09:14:12;;;;;;;10.40;9.90;;;;;;;22.99;100.00;101842.52;1997387;71;30813;-86
2022/07/30 09:20:06;;;;;;;11.03;10.53;;;;;;;23.04;100.00;101837.23;1997636;70;31300;-83
2022/07/30 09:26:00;;;;;;;10.75;10.25;;;;;;;23.09;100.00;101833.61;2004586;71;31377;-85
2022/07/30 09:31:56;;;;;;;9.73;9.23;;;;;;;23.15;100.00;101830.79;2004414;71;30872;-85
2022/07/30 09:37:45;;;;;;;9.80;9.40;;;;;;;23.12;100.00;101825.83;2008918;71;31310;-81
2022/07/30 09:43:35;;;;;;;9.75;9.30;;;;;;;23.20;100.00;101831.17;2008724;71;30838;-80
2022/07/30 09:49:21;;;;;;;9.05;8.63;;;;;;;23.29;100.00;101833.92;1999458;71;30806;-80
2022/07/30 09:55:09;;;;;;;9.78;9.20;;;;;;;23.41;100.00;101824.88;2012109;71;31462;-81
2022/07/30 10:01:00;;;;;;;9.25;8.80;;;;;;;23.38;100.00;101832.67;2015535;71;30875;-80
2022/07/30 10:06:45;;;;;;;10.32;9.63;;;;;;;23.45;100.00;101825.03;1992337;71;30813;-80
2022/07/30 10:12:40;;;;;;;10.93;10.15;;;;;;;23.42;100.00;101835.64;2012601;71;31398;-80
2022/07/30 10:18:28;;;;;;;10.50;9.80;;;;;;;23.45;100.00;101828.70;2012593;71;31373;-81
2022/07/30 10:24:17;;;;;;;13.72;10.90;;;;;;;23.60;100.00;101835.74;1995772;71;30851;-81
2022/07/30 10:30:04;;;;;;;13.10;9.75;;;;;;;23.64;100.00;101827.36;2006088;71;31468;-76
2022/07/30 10:35:49;;;;;;;10.65;9.93;;;;;;;23.59;100.00;101838.33;2018720;71;31386;-78
2022/07/30 10:41:40;;;;;;;10.43;9.83;;;;;;;23.61;100.00;101827.48;2009667;71;30875;-75
2022/07/30 10:44:34;;;;;;;10.25;9.50;;;;;;;23.60;100.00;101832.91;1967503;72;24186;-77
2022/07/30 10:50:25;;;;;;;9.58;9.18;;;;;;;23.73;100.00;101826.67;1998718;71;31380;-77
2022/07/30 10:56:17;;;;;;;9.48;9.08;;;;;;;23.59;100.00;101821.31;2008345;71;30797;-78
2022/07/30 11:02:27;;;;;;;10.15;9.53;;;;;;;23.65;100.00;101810.59;2006469;71;30793;-77
2022/07/30 11:08:40;;;;;;;10.23;9.63;;;;;;;23.92;100.00;101813.58;2012035;71;30869;-77
2022/07/30 11:14:59;;;;;;;10.32;9.10;;;;;;;24.21;100.00;101811.17;2017021;71;31470;-77
2022/07/30 11:17:41;;;;;;;10.15;9.68;;;;;;;24.11;100.00;101819.29;1968753;72;24162;-74
2022/07/30 11:23:41;;;;;;;16.37;11.73;;;;;;;24.58;100.00;101804.88;1995365;71;30790;-80
2022/07/30 11:29:40;;;;;;;11.22;9.55;;;;;;;24.37;100.00;101803.59;2016855;71;30900;-78
2022/07/30 11:35:43;;;;;;;10.50;9.68;;;;;;;24.24;100.00;101800.52;2014901;71;31367;-76
2022/07/30 11:41:28;;;;;;;10.72;9.68;;;;;;;24.25;100.00;101797.92;2016782;71;31075;-80
2022/07/30 11:47:45;;;;;;;10.03;9.33;;;;;;;24.24;100.00;101804.78;2015050;71;30866;-76
2022/07/30 11:53:35;;;;;;;11.55;10.35;;;;;;;24.18;100.00;101806.19;2006082;70;30907;-75
2022/07/30 11:59:20;;;;;;;11.15;10.10;;;;;;;24.22;100.00;101804.30;2011966;71;30975;-79
2022/07/30 12:08:18;;;;;;;11.28;10.13;;;;;;;24.28;100.00;101801.47;2061004;69;30533;-77
2022/07/30 12:10:59;;;;;;;10.50;9.90;;;;;;;24.28;100.00;101807.14;1939941;73;24109;-77
2022/07/30 12:13:30;;;;;;;9.53;8.98;;;;;;;24.28;100.00;101807.73;1966167;72;24160;-77
2022/07/30 12:16:03;;;;;;;10.10;9.43;;;;;;;24.07;100.00;101800.72;1934801;73;24238;-77
2022/07/30 12:18:34;;;;;;;9.80;9.30;;;;;;;24.12;100.00;101799.66;1939086;73;24237;-77
2022/07/30 12:21:10;;;;;;;10.18;9.40;;;;;;;24.12;100.00;101796.23;1940908;73;24686;-78
2022/07/30 12:23:42;;;;;;;9.70;9.28;;;;;;;24.25;100.00;101787.98;1937837;73;24279;-77
2022/07/30 12:26:23;;;;;;;9.20;8.70;;;;;;;24.23;100.00;101783.23;1939025;73;24212;-78
2022/07/30 12:28:55;;;;;;;10.08;9.28;;;;;;;24.12;100.00;101788.30;1947208;73;24251;-76
2022/07/30 12:31:26;;;;;;;10.48;9.70;;;;;;;24.26;100.00;101783.94;1934736;73;24153;-76
2022/07/30 12:33:59;;;;;;;10.53;9.70;;;;;;;24.22;100.00;101790.09;1934376;73;24604;-75
2022/07/30 12:36:32;;;;;;;10.20;9.35;;;;;;;24.40;100.00;101776.48;1931383;73;24692;-74
2022/07/30 12:39:05;;;;;;;11.80;9.98;;;;;;;24.39;100.00;101777.66;2011377;70;24191;-77
2022/07/30 12:41:49;;;;;;;10.18;9.40;;;;;;;24.53;100.00;101772.44;2015936;70;24705;-76
2022/07/30 12:44:41;;;;;;;11.55;10.45;;;;;;;24.51;100.00;101768.31;1969288;72;24139;-75
2022/07/30 12:47:22;;;;;;;9.58;9.03;;;;;;;24.50;100.00;101770.33;2017474;70;24185;-77
2022/07/30 12:49:54;;;;;;;10.50;9.40;;;;;;;24.71;100.00;101761.63;1989690;72;24157;-76
2022/07/30 12:52:27;;;;;;;9.50;9.10;;;;;;;24.50;100.00;101768.91;1933379;73;24656;-77
2022/07/30 12:55:08;;;;;;;9.78;9.18;;;;;;;24.67;100.00;101758.69;1968231;72;24145;-76
2022/07/30 12:57:59;;;;;;;10.85;9.90;;;;;;;24.57;100.00;101762.02;1937899;74;24116;-77
2022/07/30 13:00:32;;;;;;;14.87;10.43;;;;;;;24.59;100.00;101762.50;1933630;73;24165;-75
2022/07/30 13:03:04;;;;;;;11.08;10.45;;;;;;;24.68;100.00;101761.77;1936277;74;24204;-76
2022/07/30 13:05:49;;;;;;;11.05;10.30;;;;;;;24.73;100.00;101747.29;1903138;74;24244;-76
2022/07/30 13:11:41;;;;;;;9.83;9.33;;;;;;;24.80;100.00;101743.27;2016621;71;30877;-76
2022/07/30 13:17:26;;;;;;;9.43;9.03;;;;;;;24.62;100.00;101743.89;2000748;71;31321;-74
2022/07/30 13:23:12;;;;;;;10.82;10.00;;;;;;;24.75;100.00;101739.25;1997001;71;30836;-74
2022/07/30 13:28:56;;;;;;;9.98;9.43;;;;;;;24.64;100.00;101741.53;1991511;71;31297;-74
2022/07/30 13:34:42;;;;;;;10.70;9.78;;;;;;;24.81;100.00;101732.13;2009669;71;31422;-76
2022/07/30 13:40:30;;;;;;;9.75;9.25;;;;;;;25.02;100.00;101730.53;2007088;71;31309;-73
2022/07/30 13:46:20;;;;;;;10.05;9.28;;;;;;;24.93;100.00;101730.69;2009464;71;31436;-74
2022/07/30 13:52:05;;;;;;;9.23;8.83;;;;;;;24.85;100.00;101729.39;2000896;71;31303;-73
2022/07/30 13:57:50;;;;;;;9.08;8.68;;;;;;;25.35;100.00;101733.09;2001004;71;30797;-74
2022/07/30 14:03:34;;;;;;;9.38;8.70;;;;;;;25.34;100.00;101723.72;2009466;71;30899;-76
2022/07/30 14:09:20;;;;;;;8.80;8.50;;;;;;;25.19;100.00;101720.86;1991560;71;30790;-74
2022/07/30 14:15:08;;;;;;;9.33;8.85;;;;;;;25.47;100.00;101725.89;2016833;71;31327;-75
2022/07/30 14:20:53;;;;;;;8.95;8.65;;;;;;;25.57;100.00;101717.45;2006448;71;32385;-75
2022/07/30 14:26:39;;;;;;;9.90;9.50;;;;;;;25.43;100.00;101709.33;2015265;71;30959;-75
2022/07/30 14:32:24;;;;;;;10.18;9.78;;;;;;;25.59;100.00;101705.92;2000143;71;30864;-75
2022/07/30 14:38:10;;;;;;;9.58;9.23;;;;;;;25.16;100.00;101704.53;2016892;71;30945;-75
2022/07/30 14:43:55;;;;;;;9.75;9.20;;;;;;;25.22;100.00;101700.21;2009199;71;30917;-75
2022/07/30 14:49:42;;;;;;;9.78;9.05;;;;;;;25.37;100.00;101705.91;2004256;71;31766;-76
2022/07/30 14:55:28;;;;;;;10.20;9.55;;;;;;;24.75;100.00;101702.30;2018575;71;30958;-76
2022/07/30 15:01:15;;;;;;;9.88;9.38;;;;;;;24.69;100.00;101709.41;2007756;71;30847;-75
2022/07/30 15:07:01;;;;;;;9.48;8.90;;;;;;;24.72;100.00;101702.20;2002625;71;33205;-75
2022/07/30 15:12:48;;;;;;;10.05;9.45;;;;;;;24.79;100.00;101700.39;2006086;71;31481;-76
2022/07/30 15:18:36;;;;;;;9.80;9.30;;;;;;;24.93;100.00;101702.27;1994817;71;30853;-77
2022/07/30 15:24:23;;;;;;;9.48;9.08;;;;;;;24.90;100.00;101707.23;1997054;71;30851;-74
2022/07/30 15:30:10;;;;;;;10.50;9.83;;;;;;;24.80;100.00;101692.10;2016651;71;30969;-78
2022/07/30 15:35:55;;;;;;;10.18;9.78;;;;;;;25.02;100.00;101690.73;2005965;71;30863;-75
2022/07/30 15:41:41;;;;;;;9.45;8.95;;;;;;;25.04;100.00;101679.81;2010122;71;31327;-76
2022/07/30 15:47:27;;;;;;;8.80;8.40;;;;;;;25.29;100.00;101681.31;2000847;71;30840;-76
2022/07/30 15:53:12;;;;;;;8.88;8.48;;;;;;;25.00;100.00;101681.73;1995301;71;31859;-76
2022/07/30 15:58:58;;;;;;;8.80;8.40;;;;;;;24.85;100.00;101683.91;2016625;71;30858;-76
2022/07/30 16:04:46;;;;;;;8.50;8.20;;;;;;;24.96;100.00;101672.86;2003706;71;30944;-75
2022/07/30 16:10:33;;;;;;;8.90;8.50;;;;;;;24.93;100.00;101674.43;2016658;71;31003;-75
2022/07/30 16:16:20;;;;;;;8.93;8.50;;;;;;;25.08;100.00;101669.36;2013417;71;30870;-75
2022/07/30 16:22:09;;;;;;;8.75;8.35;;;;;;;25.04;100.00;101673.30;2009635;71;30856;-75
2022/07/30 16:27:58;;;;;;;9.40;9.00;;;;;;;25.19;100.00;101673.34;1997176;71;30888;-76
2022/07/30 16:33:43;;;;;;;9.90;9.50;;;;;;;25.07;100.00;101673.42;2016687;71;30942;-77
2022/07/30 16:39:30;;;;;;;9.55;9.08;;;;;;;25.08;100.00;101655.14;1998752;71;31347;-74
2022/07/30 16:45:17;;;;;;;9.95;9.30;;;;;;;24.96;100.00;101652.38;2001001;71;31381;-75
2022/07/30 16:51:03;;;;;;;10.35;9.40;;;;;;;25.02;100.00;101652.95;2009671;71;31848;-77
2022/07/30 16:56:51;;;;;;;10.65;9.88;;;;;;;25.25;100.00;101643.42;2006321;71;30810;-77
2022/07/30 17:02:36;;;;;;;9.83;9.43;;;;;;;25.23;100.00;101640.73;1980129;72;30974;-77
2022/07/30 17:08:23;;;;;;;10.00;9.50;;;;;;;25.14;100.00;101639.48;2014912;71;30940;-77
2022/07/30 17:14:08;;;;;;;10.00;9.50;;;;;;;25.17;100.00;101643.60;2016566;70;30862;-75
2022/07/30 17:19:54;;;;;;;9.88;9.25;;;;;;;25.27;100.00;101643.90;2007680;71;31006;-76
2022/07/30 17:25:39;;;;;;;10.53;9.83;;;;;;;25.14;100.00;101637.23;2016612;71;30927;-76
2022/07/30 17:31:24;;;;;;;10.03;9.43;;;;;;;25.10;100.00;101640.58;2014662;71;30929;-76
2022/07/30 17:37:10;;;;;;;9.98;9.58;;;;;;;25.22;100.00;101638.48;2018332;71;30900;-74
2022/07/30 17:43:01;;;;;;;10.25;9.55;;;;;;;25.21;100.00;101641.09;2007941;71;30875;-74
2022/07/30 17:48:42;;;;;;;9.45;9.05;;;;;;;25.43;100.00;101639.63;2009675;71;31462;-77
2022/07/30 17:54:27;;;;;;;9.88;9.45;;;;;;;25.75;100.00;101633.36;1997459;71;30786;-74
2022/07/30 18:00:14;;;;;;;9.70;9.30;;;;;;;25.53;100.00;101636.84;2002735;71;30808;-76
2022/07/30 18:06:00;;;;;;;10.30;9.80;;;;;;;25.30;100.00;101641.73;2000446;71;30889;-78
2022/07/30 18:11:45;;;;;;;9.73;9.30;;;;;;;25.27;100.00;101648.17;2017030;71;32342;-78
2022/07/30 18:17:30;;;;;;;10.58;10.03;;;;;;;25.16;100.00;101645.61;1995087;71;31841;-78
2022/07/30 18:23:19;;;;;;;10.53;9.80;;;;;;;25.05;100.00;101643.68;2009605;71;30861;-76
2022/07/30 18:29:05;;;;;;;11.03;10.13;;;;;;;25.00;100.00;101645.36;2011762;71;30814;-78
2022/07/30 18:34:50;;;;;;;10.40;9.70;;;;;;;24.89;100.00;101643.66;2000299;71;31452;-75
2022/07/30 18:40:36;;;;;;;10.93;10.32;;;;;;;24.81;100.00;101650.30;2009840;71;32387;-75
2022/07/30 18:46:23;;;;;;;10.40;9.90;;;;;;;25.01;100.00;101658.39;2013323;71;31686;-74
2022/07/30 18:52:08;;;;;;;10.20;9.80;;;;;;;25.03;100.00;101657.45;1999113;71;30922;-74
2022/07/30 18:57:54;;;;;;;10.15;9.75;;;;;;;24.89;100.00;101667.23;2011364;71;30945;-75
2022/07/30 19:03:40;;;;;;;10.80;10.30;;;;;;;24.88;100.00;101672.67;2010124;71;30831;-75
2022/07/30 19:09:26;;;;;;;10.82;10.23;;;;;;;25.06;100.00;101670.34;2016835;71;31835;-75
2022/07/30 19:15:12;;;;;;;10.88;10.32;;;;;;;25.02;100.00;101683.63;2008406;71;31771;-78
2022/07/30 19:20:57;;;;;;;10.65;10.15;;;;;;;24.81;100.00;101695.77;1991483;71;31757;-76
2022/07/30 19:26:43;;;;;;;11.30;10.80;;;;;;;24.81;100.00;101693.77;2016593;71;32450;-75
2022/07/30 19:32:31;;;;;;;10.40;10.00;;;;;;;24.82;100.00;101701.67;2002281;71;30999;-75
2022/07/30 19:38:16;;;;;;;10.75;10.18;;;;;;;24.94;100.00;101699.62;2006081;71;31838;-75
2022/07/30 19:44:03;;;;;;;11.18;10.48;;;;;;;24.77;100.00;101701.33;2016825;71;31420;-76
2022/07/30 19:49:47;;;;;;;11.03;10.43;;;;;;;24.71;100.00;101696.27;2009607;71;32367;-75
2022/07/30 19:55:34;;;;;;;10.85;10.35;;;;;;;24.68;100.00;101692.74;2004371;71;30809;-78
2022/07/30 20:01:22;;;;;;;11.00;10.53;;;;;;;24.96;100.00;101699.88;2006381;71;30853;-77
2022/07/30 20:07:06;;;;;;;11.03;10.63;;;;;;;25.02;100.00;101710.63;2015001;71;30970;-76
2022/07/30 20:12:52;;;;;;;11.15;10.65;;;;;;;25.17;100.00;101704.73;2009959;71;31341;-74
2022/07/30 20:18:38;;;;;;;11.08;10.40;;;;;;;25.05;100.00;101713.34;2005941;71;30897;-75
2022/07/30 20:24:23;;;;;;;10.55;10.05;;;;;;;24.99;100.00;101736.92;2013187;71;30877;-75
2022/07/30 20:30:13;;;;;;;10.90;10.40;;;;;;;24.98;100.00;101738.73;2015228;71;31358;-75
2022/07/30 20:35:58;;;;;;;10.80;10.30;;;;;;;25.00;100.00;101743.44;2009428;70;31443;-75
2022/07/30 20:41:45;;;;;;;11.28;10.78;;;;;;;24.96;100.00;101744.77;2011427;71;31365;-74
2022/07/30 20:47:30;;;;;;;11.48;10.98;;;;;;;24.85;100.00;101742.18;2011317;71;31377;-76
2022/07/30 20:53:15;;;;;;;11.35;10.85;;;;;;;24.81;100.00;101744.92;2016741;71;30951;-76
2022/07/30 20:59:00;;;;;;;11.80;11.28;;;;;;;24.86;100.00;101743.84;1997515;71;31847;-75
2022/07/30 21:04:46;;;;;;;14.18;13.48;;;;;;;24.13;100.00;101733.19;2014872;71;30897;-75
2022/07/30 21:10:32;;;;;;;15.53;14.83;;;;;;;23.97;100.00;101731.63;1991844;71;30840;-75
2022/07/30 21:16:20;;;;;;;14.75;14.13;;;;;;;24.01;100.00;101734.83;2005666;71;31399;-75
2022/07/30 21:22:05;;;;;;;17.65;16.82;;;;;;;23.93;100.00;101743.45;2014998;71;31504;-75
2022/07/30 21:27:51;;;;;;;19.10;18.20;;;;;;;23.66;100.00;101746.38;2018638;71;30912;-75
2022/07/30 21:33:38;;;;;;;19.05;18.15;;;;;;;23.63;100.00;101742.01;2009991;71;30850;-75
2022/07/30 21:39:24;;;;;;;17.77;16.97;;;;;;;23.75;100.00;101732.09;1998854;71;31033;-75
2022/07/30 21:45:11;;;;;;;19.57;18.60;;;;;;;23.46;100.00;101713.27;2004121;71;31025;-76
2022/07/30 21:50:57;;;;;;;20.72;19.57;;;;;;;23.44;100.00;101732.07;1998714;71;30891;-76
2022/07/30 21:56:42;;;;;;;22.10;20.80;;;;;;;23.35;100.00;101741.22;2000260;71;30933;-76
2022/07/30 22:02:29;;;;;;;22.25;21.27;;;;;;;23.36;100.00;101737.80;2009521;71;31065;-75
2022/07/30 22:08:20;;;;;;;23.83;22.82;;;;;;;23.30;100.00;101736.36;2004579;71;30935;-77
2022/07/30 22:14:04;;;;;;;24.52;23.42;;;;;;;23.13;100.00;101733.95;2007907;71;31089;-76
2022/07/30 22:19:49;;;;;;;27.07;25.88;;;;;;;23.05;100.00;101718.45;2013394;71;31494;-75
2022/07/30 22:25:34;;;;;;;30.20;28.80;;;;;;;22.83;100.00;101735.81;2016766;71;30863;-77
2022/07/30 22:31:19;;;;;;;31.55;30.05;;;;;;;22.79;100.00;101727.77;2004342;71;31335;-75
2022/07/30 22:37:05;;;;;;;33.50;31.87;;;;;;;22.66;100.00;101743.84;2012121;71;30796;-76
2022/07/30 22:42:50;;;;;;;34.80;33.15;;;;;;;22.71;100.00;101749.34;2004720;71;30850;-75
2022/07/30 22:48:34;;;;;;;35.25;33.55;;;;;;;22.58;100.00;101747.58;2018697;71;31357;-77
2022/07/30 22:54:20;;;;;;;39.33;37.42;;;;;;;22.50;100.00;101739.98;1995388;71;30880;-74
2022/07/30 23:00:08;;;;;;;41.20;39.30;;;;;;;22.48;100.00;101740.90;2004653;70;30811;-76
2022/07/30 23:05:53;;;;;;;44.20;42.10;;;;;;;22.38;100.00;101741.32;2013954;71;31335;-76
2022/07/30 23:11:38;;;;;;;43.65;41.45;;;;;;;22.32;100.00;101738.44;2000786;71;30925;-75
2022/07/30 23:17:23;;;;;;;46.70;44.40;;;;;;;22.18;100.00;101733.86;2011852;71;30855;-74
2022/07/30 23:23:08;;;;;;;48.68;46.28;;;;;;;22.17;100.00;101737.02;2003746;71;30813;-75
2022/07/30 23:28:53;;;;;;;50.92;48.50;;;;;;;22.17;100.00;101735.02;2009722;71;31029;-75
2022/07/30 23:34:38;;;;;;;54.40;51.70;;;;;;;22.10;100.00;101729.66;2001143;71;31365;-75
2022/07/30 23:40:22;;;;;;;55.40;52.60;;;;;;;22.11;100.00;101718.59;2016910;71;30866;-75
2022/07/30 23:46:07;;;;;;;56.50;53.80;;;;;;;22.09;100.00;101699.70;2015248;71;30958;-76
2022/07/30 23:51:52;;;;;;;58.77;55.87;;;;;;;22.04;100.00;101707.80;2018863;71;30871;-77
2022/07/30 23:57:38;;;;;;;57.27;54.40;;;;;;;22.01;100.00;101711.90;2011505;71;30883;-76
